sensor_id;sensor_type;location;lat;lon;timestamp;pressure;altitude;pressure_sealevel;temperature;humidity
19553;BME280;9420;50.876;7.012;2022-10-16T00:00:42;100662.50;;;28.60;60.36
19553;BME280;9420;50.876;7.012;2022-10-16T00:03:11;100669.25;;;28.89;59.36
19553;BME280;9420;50.876;7.012;2022-10-16T00:05:40;100679.84;;;28.67;60.13
19553;BME280;9420;50.876;7.012;2022-10-16T00:08:10;100670.66;;;29.09;59.54
19553;BME280;9420;50.876;7.012;2022-10-16T00:10:37;100674.56;;;28.99;58.74
19553;BME280;9420;50.876;7.012;2022-10-16T00:13:05;100674.00;;;29.45;58.20
19553;BME280;9420;50.876;7.012;2022-10-16T00:15:36;100678.78;;;29.51;57.61
19553;BME280;9420;50.876;7.012;2022-10-16T00:18:05;100674.72;;;29.55;57.58
19553;BME280;9420;50.876;7.012;2022-10-16T00:20:34;100659.22;;;28.74;59.66
19553;BME280;9420;50.876;7.012;2022-10-16T00:23:03;100663.53;;;30.31;56.44
19553;BME280;9420;50.876;7.012;2022-10-16T00:25:31;100678.50;;;29.78;57.33
19553;BME280;9420;50.876;7.012;2022-10-16T00:27:59;100689.34;;;29.78;57.12
19553;BME280;9420;50.876;7.012;2022-10-16T00:30:26;100689.00;;;29.81;56.83
19553;BME280;9420;50.876;7.012;2022-10-16T00:32:56;100689.66;;;30.08;56.04
19553;BME280;9420;50.876;7.012;2022-10-16T00:35:23;100693.06;;;29.94;56.30
19553;BME280;9420;50.876;7.012;2022-10-16T00:37:50;100700.09;;;29.30;57.74
19553;BME280;9420;50.876;7.012;2022-10-16T00:40:18;100689.81;;;29.66;56.66
19553;BME280;9420;50.876;7.012;2022-10-16T00:42:45;100696.59;;;29.12;58.60
19553;BME280;9420;50.876;7.012;2022-10-16T00:45:13;100678.00;;;28.75;59.82
19553;BME280;9420;50.876;7.012;2022-10-16T00:47:43;100668.81;;;28.68;59.79
19553;BME280;9420;50.876;7.012;2022-10-16T00:50:22;100674.66;;;28.56;61.21
19553;BME280;9420;50.876;7.012;2022-10-16T00:52:52;100681.69;;;28.41;61.08
19553;BME280;9420;50.876;7.012;2022-10-16T00:55:20;100688.13;;;28.40;61.16
19553;BME280;9420;50.876;7.012;2022-10-16T00:57:49;100697.72;;;28.60;60.47
19553;BME280;9420;50.876;7.012;2022-10-16T01:00:20;100676.69;;;29.29;58.78
19553;BME280;9420;50.876;7.012;2022-10-16T01:02:53;100685.66;;;28.80;60.20
19553;BME280;9420;50.876;7.012;2022-10-16T01:05:24;100674.00;;;29.45;58.05
19553;BME280;9420;50.876;7.012;2022-10-16T01:07:59;100679.47;;;30.18;55.91
19553;BME280;9420;50.876;7.012;2022-10-16T01:10:38;100684.84;;;29.45;56.61
19553;BME280;9420;50.876;7.012;2022-10-16T01:13:10;100677.44;;;29.63;56.42
19553;BME280;9420;50.876;7.012;2022-10-16T01:15:44;100678.63;;;30.01;55.45
19553;BME280;9420;50.876;7.012;2022-10-16T01:18:19;100675.06;;;30.09;54.88
19553;BME280;9420;50.876;7.012;2022-10-16T01:20:57;100687.63;;;29.94;54.57
19553;BME280;9420;50.876;7.012;2022-10-16T01:23:41;100686.59;;;30.03;54.71
19553;BME280;9420;50.876;7.012;2022-10-16T01:26:33;100705.16;;;29.33;56.72
19553;BME280;9420;50.876;7.012;2022-10-16T01:29:11;100709.97;;;29.55;55.97
19553;BME280;9420;50.876;7.012;2022-10-16T01:31:47;100694.50;;;30.69;54.24
19553;BME280;9420;50.876;7.012;2022-10-16T01:34:22;100690.38;;;30.02;54.55
19553;BME280;9420;50.876;7.012;2022-10-16T01:36:56;100696.91;;;29.59;56.55
19553;BME280;9420;50.876;7.012;2022-10-16T01:39:32;100698.38;;;29.29;57.42
19553;BME280;9420;50.876;7.012;2022-10-16T01:42:11;100684.88;;;29.69;56.71
19553;BME280;9420;50.876;7.012;2022-10-16T01:44:42;100706.75;;;29.60;56.47
19553;BME280;9420;50.876;7.012;2022-10-16T01:47:13;100711.34;;;29.59;56.63
19553;BME280;9420;50.876;7.012;2022-10-16T01:49:42;100708.28;;;29.70;56.04
19553;BME280;9420;50.876;7.012;2022-10-16T01:52:16;100701.16;;;29.69;56.75
19553;BME280;9420;50.876;7.012;2022-10-16T01:54:49;100704.59;;;30.20;54.72
19553;BME280;9420;50.876;7.012;2022-10-16T01:57:20;100703.75;;;30.03;54.73
19553;BME280;9420;50.876;7.012;2022-10-16T01:59:54;100709.22;;;29.29;56.70
19553;BME280;9420;50.876;7.012;2022-10-16T02:02:28;100709.53;;;29.84;55.72
19553;BME280;9420;50.876;7.012;2022-10-16T02:05:04;100703.84;;;29.45;56.68
19553;BME280;9420;50.876;7.012;2022-10-16T02:07:32;100709.63;;;29.42;57.19
19553;BME280;9420;50.876;7.012;2022-10-16T02:10:00;100712.09;;;28.86;58.68
19553;BME280;9420;50.876;7.012;2022-10-16T02:12:31;100709.88;;;29.97;57.65
19553;BME280;9420;50.876;7.012;2022-10-16T02:15:01;100717.16;;;29.89;56.99
19553;BME280;9420;50.876;7.012;2022-10-16T02:17:29;100713.72;;;29.13;58.39
19553;BME280;9420;50.876;7.012;2022-10-16T02:19:58;100722.31;;;29.00;59.63
19553;BME280;9420;50.876;7.012;2022-10-16T02:22:30;100727.53;;;28.60;61.52
19553;BME280;9420;50.876;7.012;2022-10-16T02:25:05;100724.16;;;28.91;61.49
19553;BME280;9420;50.876;7.012;2022-10-16T02:27:39;100712.50;;;28.99;60.92
19553;BME280;9420;50.876;7.012;2022-10-16T02:30:14;100707.22;;;29.47;59.07
19553;BME280;9420;50.876;7.012;2022-10-16T02:32:48;100711.19;;;29.11;60.78
19553;BME280;9420;50.876;7.012;2022-10-16T02:35:20;100711.00;;;29.04;60.93
19553;BME280;9420;50.876;7.012;2022-10-16T02:37:50;100714.59;;;29.13;60.62
19553;BME280;9420;50.876;7.012;2022-10-16T02:40:18;100723.44;;;29.15;60.47
19553;BME280;9420;50.876;7.012;2022-10-16T02:42:51;100731.81;;;29.04;61.25
19553;BME280;9420;50.876;7.012;2022-10-16T02:45:22;100739.28;;;29.02;61.42
19553;BME280;9420;50.876;7.012;2022-10-16T02:47:49;100722.03;;;29.11;60.93
19553;BME280;9420;50.876;7.012;2022-10-16T02:50:17;100735.06;;;29.07;60.99
19553;BME280;9420;50.876;7.012;2022-10-16T02:52:44;100723.47;;;29.31;60.57
19553;BME280;9420;50.876;7.012;2022-10-16T02:55:11;100722.44;;;29.24;60.70
19553;BME280;9420;50.876;7.012;2022-10-16T02:57:38;100730.56;;;29.24;60.77
19553;BME280;9420;50.876;7.012;2022-10-16T03:00:08;100731.56;;;29.15;60.57
19553;BME280;9420;50.876;7.012;2022-10-16T03:02:37;100734.72;;;29.11;60.71
19553;BME280;9420;50.876;7.012;2022-10-16T03:05:06;100727.84;;;29.24;60.26
19553;BME280;9420;50.876;7.012;2022-10-16T03:07:34;100726.16;;;29.23;60.50
19553;BME280;9420;50.876;7.012;2022-10-16T03:10:01;100734.19;;;28.99;60.93
19553;BME280;9420;50.876;7.012;2022-10-16T03:12:29;100724.88;;;29.09;60.51
19553;BME280;9420;50.876;7.012;2022-10-16T03:14:56;100718.88;;;28.82;61.34
19553;BME280;9420;50.876;7.012;2022-10-16T03:17:24;100725.28;;;28.81;61.37
19553;BME280;9420;50.876;7.012;2022-10-16T03:19:52;100723.97;;;28.93;61.25
19553;BME280;9420;50.876;7.012;2022-10-16T03:22:19;100715.13;;;28.83;61.32
19553;BME280;9420;50.876;7.012;2022-10-16T03:24:46;100702.56;;;28.74;61.84
19553;BME280;9420;50.876;7.012;2022-10-16T03:27:13;100713.06;;;28.77;61.59
19553;BME280;9420;50.876;7.012;2022-10-16T03:29:41;100722.28;;;28.92;61.36
19553;BME280;9420;50.876;7.012;2022-10-16T03:32:08;100734.78;;;28.85;61.40
19553;BME280;9420;50.876;7.012;2022-10-16T03:34:35;100720.03;;;28.79;61.23
19553;BME280;9420;50.876;7.012;2022-10-16T03:37:03;100715.59;;;28.78;61.70
19553;BME280;9420;50.876;7.012;2022-10-16T03:39:31;100711.91;;;30.03;59.20
19553;BME280;9420;50.876;7.012;2022-10-16T03:41:58;100708.78;;;29.00;59.98
19553;BME280;9420;50.876;7.012;2022-10-16T03:44:25;100706.44;;;29.05;61.44
19553;BME280;9420;50.876;7.012;2022-10-16T03:46:52;100727.66;;;28.76;61.84
19553;BME280;9420;50.876;7.012;2022-10-16T03:49:19;100719.34;;;28.77;61.46
19553;BME280;9420;50.876;7.012;2022-10-16T03:51:46;100734.66;;;28.86;61.73
19553;BME280;9420;50.876;7.012;2022-10-16T03:54:14;100729.31;;;28.77;62.04
19553;BME280;9420;50.876;7.012;2022-10-16T03:56:41;100743.06;;;28.32;63.09
19553;BME280;9420;50.876;7.012;2022-10-16T03:59:08;100747.16;;;28.10;64.22
19553;BME280;9420;50.876;7.012;2022-10-16T04:01:35;100760.69;;;28.10;64.78
19553;BME280;9420;50.876;7.012;2022-10-16T04:04:02;100766.66;;;28.40;63.61
19553;BME280;9420;50.876;7.012;2022-10-16T04:06:30;100760.59;;;28.46;64.00
19553;BME280;9420;50.876;7.012;2022-10-16T04:08:57;100757.59;;;28.49;63.20
19553;BME280;9420;50.876;7.012;2022-10-16T04:11:25;100760.47;;;27.94;64.66
19553;BME280;9420;50.876;7.012;2022-10-16T04:13:53;100760.09;;;28.24;63.54
19553;BME280;9420;50.876;7.012;2022-10-16T04:16:20;100750.97;;;27.90;63.97
19553;BME280;9420;50.876;7.012;2022-10-16T04:18:47;100744.19;;;28.21;61.88
19553;BME280;9420;50.876;7.012;2022-10-16T04:21:14;100750.19;;;28.33;61.88
19553;BME280;9420;50.876;7.012;2022-10-16T04:23:42;100753.84;;;28.50;63.06
19553;BME280;9420;50.876;7.012;2022-10-16T04:26:09;100767.91;;;28.96;61.10
19553;BME280;9420;50.876;7.012;2022-10-16T04:28:38;100773.34;;;28.71;61.56
19553;BME280;9420;50.876;7.012;2022-10-16T04:31:06;100769.91;;;28.94;60.76
19553;BME280;9420;50.876;7.012;2022-10-16T04:33:33;100769.94;;;28.69;61.53
19553;BME280;9420;50.876;7.012;2022-10-16T04:36:02;100774.47;;;28.94;61.23
19553;BME280;9420;50.876;7.012;2022-10-16T04:38:30;100780.78;;;28.51;61.04
19553;BME280;9420;50.876;7.012;2022-10-16T04:40:57;100779.75;;;29.29;60.27
19553;BME280;9420;50.876;7.012;2022-10-16T04:43:25;100778.50;;;29.65;59.12
19553;BME280;9420;50.876;7.012;2022-10-16T04:45:53;100777.53;;;29.25;59.91
19553;BME280;9420;50.876;7.012;2022-10-16T04:48:22;100779.16;;;29.51;59.80
19553;BME280;9420;50.876;7.012;2022-10-16T04:50:49;100782.56;;;29.53;59.74
19553;BME280;9420;50.876;7.012;2022-10-16T04:53:16;100766.22;;;29.37;60.01
19553;BME280;9420;50.876;7.012;2022-10-16T04:55:43;100776.03;;;29.30;59.97
19553;BME280;9420;50.876;7.012;2022-10-16T04:58:11;100782.16;;;28.73;60.81
19553;BME280;9420;50.876;7.012;2022-10-16T05:00:38;100779.41;;;28.65;61.09
19553;BME280;9420;50.876;7.012;2022-10-16T05:03:07;100782.69;;;29.10;60.15
19553;BME280;9420;50.876;7.012;2022-10-16T05:05:34;100800.75;;;28.68;61.06
19553;BME280;9420;50.876;7.012;2022-10-16T05:08:03;100801.59;;;28.07;62.39
19553;BME280;9420;50.876;7.012;2022-10-16T05:10:30;100806.63;;;29.48;59.70
19553;BME280;9420;50.876;7.012;2022-10-16T05:12:57;100795.13;;;29.70;58.05
19553;BME280;9420;50.876;7.012;2022-10-16T05:15:24;100792.81;;;29.75;58.56
19553;BME280;9420;50.876;7.012;2022-10-16T05:17:53;100795.13;;;29.70;57.81
19553;BME280;9420;50.876;7.012;2022-10-16T05:20:22;100799.13;;;29.42;58.97
19553;BME280;9420;50.876;7.012;2022-10-16T05:22:49;100810.19;;;28.64;60.89
19553;BME280;9420;50.876;7.012;2022-10-16T05:25:16;100807.94;;;29.11;60.28
19553;BME280;9420;50.876;7.012;2022-10-16T05:27:46;100804.94;;;28.45;61.91
19553;BME280;9420;50.876;7.012;2022-10-16T05:30:14;100799.63;;;29.12;61.17
19553;BME280;9420;50.876;7.012;2022-10-16T05:32:45;100807.13;;;28.59;61.58
19553;BME280;9420;50.876;7.012;2022-10-16T05:35:12;100812.75;;;28.91;61.46
19553;BME280;9420;50.876;7.012;2022-10-16T05:37:41;100822.38;;;28.42;61.68
19553;BME280;9420;50.876;7.012;2022-10-16T05:40:09;100810.41;;;28.96;61.11
19553;BME280;9420;50.876;7.012;2022-10-16T05:42:36;100815.69;;;29.05;60.15
19553;BME280;9420;50.876;7.012;2022-10-16T05:45:05;100827.63;;;28.87;60.96
19553;BME280;9420;50.876;7.012;2022-10-16T05:47:32;100804.78;;;29.15;59.60
19553;BME280;9420;50.876;7.012;2022-10-16T05:50:00;100801.81;;;29.76;58.47
19553;BME280;9420;50.876;7.012;2022-10-16T05:52:27;100816.94;;;30.03;57.13
19553;BME280;9420;50.876;7.012;2022-10-16T05:54:55;100824.00;;;28.78;59.39
19553;BME280;9420;50.876;7.012;2022-10-16T05:57:22;100845.06;;;28.59;60.54
19553;BME280;9420;50.876;7.012;2022-10-16T05:59:50;100849.25;;;28.79;59.85
19553;BME280;9420;50.876;7.012;2022-10-16T06:02:16;100849.16;;;28.63;60.90
19553;BME280;9420;50.876;7.012;2022-10-16T06:04:43;100860.88;;;28.54;61.00
19553;BME280;9420;50.876;7.012;2022-10-16T06:07:10;100855.41;;;28.46;61.57
19553;BME280;9420;50.876;7.012;2022-10-16T06:09:37;100858.94;;;29.07;59.52
19553;BME280;9420;50.876;7.012;2022-10-16T06:12:06;100851.63;;;29.07;59.60
19553;BME280;9420;50.876;7.012;2022-10-16T06:14:33;100861.66;;;29.07;59.22
19553;BME280;9420;50.876;7.012;2022-10-16T06:17:00;100880.53;;;28.56;60.33
19553;BME280;9420;50.876;7.012;2022-10-16T06:19:27;100883.28;;;29.25;59.16
19553;BME280;9420;50.876;7.012;2022-10-16T06:21:54;100884.03;;;29.09;58.99
19553;BME280;9420;50.876;7.012;2022-10-16T06:24:23;100879.47;;;28.84;59.21
19553;BME280;9420;50.876;7.012;2022-10-16T06:26:50;100873.16;;;29.01;59.27
19553;BME280;9420;50.876;7.012;2022-10-16T06:29:19;100866.03;;;29.67;57.75
19553;BME280;9420;50.876;7.012;2022-10-16T06:31:46;100866.78;;;29.77;57.15
19553;BME280;9420;50.876;7.012;2022-10-16T06:34:13;100882.41;;;28.90;59.86
19553;BME280;9420;50.876;7.012;2022-10-16T06:36:41;100888.59;;;28.83;60.68
19553;BME280;9420;50.876;7.012;2022-10-16T06:39:09;100888.28;;;28.86;60.76
19553;BME280;9420;50.876;7.012;2022-10-16T06:41:36;100902.19;;;28.91;61.37
19553;BME280;9420;50.876;7.012;2022-10-16T06:44:06;100919.66;;;28.71;62.29
19553;BME280;9420;50.876;7.012;2022-10-16T06:46:35;100902.19;;;29.34;60.72
19553;BME280;9420;50.876;7.012;2022-10-16T06:49:02;100910.16;;;29.36;60.71
19553;BME280;9420;50.876;7.012;2022-10-16T06:51:29;100917.53;;;29.51;60.35
19553;BME280;9420;50.876;7.012;2022-10-16T06:53:57;100927.44;;;29.35;61.21
19553;BME280;9420;50.876;7.012;2022-10-16T06:56:26;100923.00;;;29.59;61.31
19553;BME280;9420;50.876;7.012;2022-10-16T06:58:55;100918.06;;;29.89;60.11
19553;BME280;9420;50.876;7.012;2022-10-16T07:01:23;100927.78;;;29.65;60.91
19553;BME280;9420;50.876;7.012;2022-10-16T07:03:53;100938.44;;;29.93;61.37
19553;BME280;9420;50.876;7.012;2022-10-16T07:06:22;100935.72;;;29.93;60.81
19553;BME280;9420;50.876;7.012;2022-10-16T07:08:50;100927.91;;;29.98;61.91
19553;BME280;9420;50.876;7.012;2022-10-16T07:11:20;100940.19;;;30.02;61.25
19553;BME280;9420;50.876;7.012;2022-10-16T07:13:49;100950.88;;;29.18;63.52
19553;BME280;9420;50.876;7.012;2022-10-16T07:16:19;100943.72;;;29.68;60.79
19553;BME280;9420;50.876;7.012;2022-10-16T07:18:47;100968.59;;;29.81;60.08
19553;BME280;9420;50.876;7.012;2022-10-16T07:21:18;100960.03;;;28.47;63.67
19553;BME280;9420;50.876;7.012;2022-10-16T07:23:50;100974.16;;;29.03;63.15
19553;BME280;9420;50.876;7.012;2022-10-16T07:26:17;100971.94;;;29.75;61.34
19553;BME280;9420;50.876;7.012;2022-10-16T07:28:44;100986.94;;;29.62;61.13
19553;BME280;9420;50.876;7.012;2022-10-16T07:31:16;100981.81;;;29.76;60.75
19553;BME280;9420;50.876;7.012;2022-10-16T07:33:46;100978.31;;;30.34;59.70
19553;BME280;9420;50.876;7.012;2022-10-16T07:36:17;100994.72;;;29.83;62.37
19553;BME280;9420;50.876;7.012;2022-10-16T07:38:45;100992.13;;;30.15;60.28
19553;BME280;9420;50.876;7.012;2022-10-16T07:41:19;101005.00;;;30.05;60.66
19553;BME280;9420;50.876;7.012;2022-10-16T07:43:48;100995.47;;;29.93;60.01
19553;BME280;9420;50.876;7.012;2022-10-16T07:46:19;101008.13;;;29.84;61.21
19553;BME280;9420;50.876;7.012;2022-10-16T07:48:46;101017.44;;;30.15;60.37
19553;BME280;9420;50.876;7.012;2022-10-16T07:51:17;101020.13;;;30.07;60.50
19553;BME280;9420;50.876;7.012;2022-10-16T07:53:45;101021.03;;;30.24;59.77
19553;BME280;9420;50.876;7.012;2022-10-16T07:56:13;101025.09;;;30.20;59.01
19553;BME280;9420;50.876;7.012;2022-10-16T07:58:41;101019.50;;;30.29;59.18
19553;BME280;9420;50.876;7.012;2022-10-16T08:01:10;101036.00;;;29.68;60.92
19553;BME280;9420;50.876;7.012;2022-10-16T08:03:37;101039.25;;;29.98;59.61
19553;BME280;9420;50.876;7.012;2022-10-16T08:06:05;101037.13;;;29.83;60.75
19553;BME280;9420;50.876;7.012;2022-10-16T08:08:33;101035.91;;;30.04;60.22
19553;BME280;9420;50.876;7.012;2022-10-16T08:11:01;101035.56;;;30.07;60.26
19553;BME280;9420;50.876;7.012;2022-10-16T08:13:29;101044.56;;;29.73;62.26
19553;BME280;9420;50.876;7.012;2022-10-16T08:15:56;101050.75;;;29.23;64.06
19553;BME280;9420;50.876;7.012;2022-10-16T08:18:23;101044.81;;;29.70;63.39
19553;BME280;9420;50.876;7.012;2022-10-16T08:20:56;101043.78;;;29.63;63.82
19553;BME280;9420;50.876;7.012;2022-10-16T08:23:24;101055.00;;;30.28;62.39
19553;BME280;9420;50.876;7.012;2022-10-16T08:25:53;101055.59;;;29.54;63.67
19553;BME280;9420;50.876;7.012;2022-10-16T08:28:22;101053.72;;;30.40;63.59
19553;BME280;9420;50.876;7.012;2022-10-16T08:30:49;101066.81;;;30.44;62.16
19553;BME280;9420;50.876;7.012;2022-10-16T08:33:16;101063.69;;;30.81;60.73
19553;BME280;9420;50.876;7.012;2022-10-16T08:35:50;101074.56;;;30.31;62.74
19553;BME280;9420;50.876;7.012;2022-10-16T08:38:18;101073.28;;;30.43;63.36
19553;BME280;9420;50.876;7.012;2022-10-16T08:40:45;101074.88;;;30.70;61.46
19553;BME280;9420;50.876;7.012;2022-10-16T08:43:56;101079.03;;;30.90;59.38
19553;BME280;9420;50.876;7.012;2022-10-16T08:46:41;101082.78;;;31.21;60.30
19553;BME280;9420;50.876;7.012;2022-10-16T08:49:12;101086.69;;;31.91;58.36
19553;BME280;9420;50.876;7.012;2022-10-16T08:51:41;101089.44;;;31.19;57.60
19553;BME280;9420;50.876;7.012;2022-10-16T08:54:25;101095.56;;;30.55;56.13
19553;BME280;9420;50.876;7.012;2022-10-16T08:56:55;101095.53;;;30.47;59.55
19553;BME280;9420;50.876;7.012;2022-10-16T08:59:23;101086.38;;;31.30;56.65
19553;BME280;9420;50.876;7.012;2022-10-16T09:01:51;101089.25;;;31.28;55.42
19553;BME280;9420;50.876;7.012;2022-10-16T09:04:47;101094.06;;;31.43;55.28
19553;BME280;9420;50.876;7.012;2022-10-16T09:07:28;101094.91;;;30.61;56.21
19553;BME280;9420;50.876;7.012;2022-10-16T09:10:28;101085.41;;;30.73;55.44
19553;BME280;9420;50.876;7.012;2022-10-16T09:13:11;101086.25;;;31.40;52.64
19553;BME280;9420;50.876;7.012;2022-10-16T09:15:55;101095.56;;;31.61;53.01
19553;BME280;9420;50.876;7.012;2022-10-16T09:18:32;101092.84;;;31.21;54.82
19553;BME280;9420;50.876;7.012;2022-10-16T09:21:14;101097.72;;;30.85;55.10
19553;BME280;9420;50.876;7.012;2022-10-16T09:23:43;101097.78;;;31.33;54.06
19553;BME280;9420;50.876;7.012;2022-10-16T09:26:12;101105.28;;;31.48;53.89
19553;BME280;9420;50.876;7.012;2022-10-16T09:28:41;101103.63;;;30.81;53.99
19553;BME280;9420;50.876;7.012;2022-10-16T09:31:17;101092.69;;;31.63;52.57
19553;BME280;9420;50.876;7.012;2022-10-16T09:33:50;101098.41;;;30.95;52.36
19553;BME280;9420;50.876;7.012;2022-10-16T09:36:20;101091.66;;;31.31;53.85
19553;BME280;9420;50.876;7.012;2022-10-16T09:38:48;101091.31;;;31.51;52.22
19553;BME280;9420;50.876;7.012;2022-10-16T09:41:19;101102.53;;;31.72;51.61
19553;BME280;9420;50.876;7.012;2022-10-16T09:43:51;101104.28;;;31.57;52.44
19553;BME280;9420;50.876;7.012;2022-10-16T09:46:28;101098.44;;;31.84;50.03
19553;BME280;9420;50.876;7.012;2022-10-16T09:48:58;101102.41;;;32.36;51.41
19553;BME280;9420;50.876;7.012;2022-10-16T09:51:30;101102.88;;;31.53;51.26
19553;BME280;9420;50.876;7.012;2022-10-16T09:54:00;101105.75;;;31.83;50.70
19553;BME280;9420;50.876;7.012;2022-10-16T09:56:30;101111.53;;;31.24;50.99
19553;BME280;9420;50.876;7.012;2022-10-16T09:59:02;101118.19;;;31.78;49.04
19553;BME280;9420;50.876;7.012;2022-10-16T10:01:38;101116.13;;;31.15;50.75
19553;BME280;9420;50.876;7.012;2022-10-16T10:04:06;101110.72;;;31.96;48.21
19553;BME280;9420;50.876;7.012;2022-10-16T10:06:36;101105.59;;;31.28;50.42
19553;BME280;9420;50.876;7.012;2022-10-16T10:09:15;101109.06;;;32.34;46.97
19553;BME280;9420;50.876;7.012;2022-10-16T10:11:48;101102.75;;;32.33;46.42
19553;BME280;9420;50.876;7.012;2022-10-16T10:14:26;101103.22;;;31.98;46.34
19553;BME280;9420;50.876;7.012;2022-10-16T10:17:15;101101.31;;;31.90;46.89
19553;BME280;9420;50.876;7.012;2022-10-16T10:19:48;101096.91;;;32.52;47.21
19553;BME280;9420;50.876;7.012;2022-10-16T10:22:40;101091.22;;;32.23;45.58
19553;BME280;9420;50.876;7.012;2022-10-16T10:25:48;101084.56;;;32.26;43.29
19553;BME280;9420;50.876;7.012;2022-10-16T10:28:39;101086.50;;;32.01;42.12
19553;BME280;9420;50.876;7.012;2022-10-16T10:31:14;101086.78;;;32.22;42.04
19553;BME280;9420;50.876;7.012;2022-10-16T10:33:58;101088.25;;;32.79;41.42
19553;BME280;9420;50.876;7.012;2022-10-16T10:36:34;101089.34;;;33.61;40.59
19553;BME280;9420;50.876;7.012;2022-10-16T10:39:08;101103.06;;;32.46;41.02
19553;BME280;9420;50.876;7.012;2022-10-16T10:42:07;101105.22;;;32.89;41.02
19553;BME280;9420;50.876;7.012;2022-10-16T10:45:02;101089.38;;;33.38;40.14
19553;BME280;9420;50.876;7.012;2022-10-16T10:47:47;101103.06;;;33.90;39.42
19553;BME280;9420;50.876;7.012;2022-10-16T10:50:25;101098.28;;;34.21;40.08
19553;BME280;9420;50.876;7.012;2022-10-16T10:53:04;101099.06;;;33.41;39.61
19553;BME280;9420;50.876;7.012;2022-10-16T10:55:40;101096.38;;;33.78;39.02
19553;BME280;9420;50.876;7.012;2022-10-16T11:01:31;101102.38;;;33.74;37.94
19553;BME280;9420;50.876;7.012;2022-10-16T11:04:27;101100.66;;;34.24;37.73
19553;BME280;9420;50.876;7.012;2022-10-16T11:07:05;101100.09;;;34.94;36.38
19553;BME280;9420;50.876;7.012;2022-10-16T11:09:39;101099.88;;;36.08;34.58
19553;BME280;9420;50.876;7.012;2022-10-16T11:12:14;101096.56;;;36.19;34.92
19553;BME280;9420;50.876;7.012;2022-10-16T11:14:50;101095.72;;;36.52;33.26
19553;BME280;9420;50.876;7.012;2022-10-16T11:17:24;101095.53;;;37.67;31.56
19553;BME280;9420;50.876;7.012;2022-10-16T11:19:58;101098.31;;;38.70;31.31
19553;BME280;9420;50.876;7.012;2022-10-16T11:22:36;101098.50;;;37.59;31.42
19553;BME280;9420;50.876;7.012;2022-10-16T11:25:13;101103.56;;;38.01;31.36
19553;BME280;9420;50.876;7.012;2022-10-16T11:27:47;101102.47;;;38.35;31.84
19553;BME280;9420;50.876;7.012;2022-10-16T11:30:20;101103.56;;;39.16;30.58
19553;BME280;9420;50.876;7.012;2022-10-16T11:33:03;101095.78;;;40.84;28.41
19553;BME280;9420;50.876;7.012;2022-10-16T11:35:41;101088.78;;;42.22;27.28
19553;BME280;9420;50.876;7.012;2022-10-16T11:38:22;101091.41;;;41.59;26.10
19553;BME280;9420;50.876;7.012;2022-10-16T11:40:57;101104.75;;;40.07;27.70
19553;BME280;9420;50.876;7.012;2022-10-16T11:43:31;101097.97;;;41.64;27.25
19553;BME280;9420;50.876;7.012;2022-10-16T11:46:08;101093.22;;;42.74;25.65
19553;BME280;9420;50.876;7.012;2022-10-16T11:48:45;101086.34;;;39.76;27.68
19553;BME280;9420;50.876;7.012;2022-10-16T11:51:25;101093.13;;;41.94;26.88
19553;BME280;9420;50.876;7.012;2022-10-16T11:54:08;101094.44;;;41.16;26.40
19553;BME280;9420;50.876;7.012;2022-10-16T11:56:40;101102.28;;;40.35;28.02
19553;BME280;9420;50.876;7.012;2022-10-16T11:59:22;101109.94;;;39.10;29.86
19553;BME280;9420;50.876;7.012;2022-10-16T12:02:15;101108.84;;;38.15;31.23
19553;BME280;9420;50.876;7.012;2022-10-16T12:04:49;101116.75;;;36.05;32.70
19553;BME280;9420;50.876;7.012;2022-10-16T12:07:23;101116.25;;;36.29;31.83
19553;BME280;9420;50.876;7.012;2022-10-16T12:09:53;101104.16;;;37.05;32.17
19553;BME280;9420;50.876;7.012;2022-10-16T12:12:28;101115.47;;;36.82;33.17
19553;BME280;9420;50.876;7.012;2022-10-16T12:15:21;101119.88;;;36.36;33.13
19553;BME280;9420;50.876;7.012;2022-10-16T12:17:49;101115.50;;;36.14;34.14
19553;BME280;9420;50.876;7.012;2022-10-16T12:20:27;101114.97;;;36.25;33.81
19553;BME280;9420;50.876;7.012;2022-10-16T12:23:00;101099.72;;;37.10;32.65
19553;BME280;9420;50.876;7.012;2022-10-16T12:25:32;101102.53;;;37.63;31.70
19553;BME280;9420;50.876;7.012;2022-10-16T12:28:05;101104.63;;;37.48;32.94
19553;BME280;9420;50.876;7.012;2022-10-16T12:30:35;101099.47;;;38.43;32.59
19553;BME280;9420;50.876;7.012;2022-10-16T12:33:05;101104.19;;;38.29;33.39
19553;BME280;9420;50.876;7.012;2022-10-16T12:35:44;101098.28;;;38.06;33.31
19553;BME280;9420;50.876;7.012;2022-10-16T12:38:18;101089.44;;;37.52;33.60
19553;BME280;9420;50.876;7.012;2022-10-16T12:40:58;101103.97;;;35.42;32.72
19553;BME280;9420;50.876;7.012;2022-10-16T12:43:39;101088.53;;;37.31;32.22
19553;BME280;9420;50.876;7.012;2022-10-16T12:46:38;101089.00;;;37.61;34.31
19553;BME280;9420;50.876;7.012;2022-10-16T12:49:29;101084.34;;;37.88;33.84
19553;BME280;9420;50.876;7.012;2022-10-16T12:51:57;101080.13;;;37.46;34.39
19553;BME280;9420;50.876;7.012;2022-10-16T12:54:29;101081.78;;;37.01;34.57
19553;BME280;9420;50.876;7.012;2022-10-16T12:57:25;101091.13;;;37.39;35.67
19553;BME280;9420;50.876;7.012;2022-10-16T13:00:04;101087.97;;;37.49;35.56
19553;BME280;9420;50.876;7.012;2022-10-16T13:06:12;101097.81;;;38.35;34.72
19553;BME280;9420;50.876;7.012;2022-10-16T13:09:08;101096.97;;;37.10;34.69
19553;BME280;9420;50.876;7.012;2022-10-16T13:12:00;101087.09;;;37.49;35.71
19553;BME280;9420;50.876;7.012;2022-10-16T13:15:08;101082.19;;;38.16;33.67
19553;BME280;9420;50.876;7.012;2022-10-16T13:17:50;101091.50;;;37.17;34.94
19553;BME280;9420;50.876;7.012;2022-10-16T13:20:30;101102.09;;;37.26;35.91
19553;BME280;9420;50.876;7.012;2022-10-16T13:23:13;101108.06;;;36.76;36.81
19553;BME280;9420;50.876;7.012;2022-10-16T13:25:58;101114.41;;;36.36;37.88
19553;BME280;9420;50.876;7.012;2022-10-16T13:28:32;101111.88;;;36.41;36.47
19553;BME280;9420;50.876;7.012;2022-10-16T13:31:02;101106.13;;;36.70;37.34
19553;BME280;9420;50.876;7.012;2022-10-16T13:33:34;101106.34;;;37.42;35.31